Tiempo atmosférico en la estación meteorológica de Valsequillo, Córdoba (575 m.)



Fecha
DESCASC
Temp. máxima en grados centígrados (hora)
DESCASC
Temp. mínima en grados centígrados (hora)
DESCASC
Temp. media en grados centígrados
DESCASC
Racha de viento máxima en m/sg (hora)
DESCASC
Velocidad máxima media en intervalos de 10 minutos(hora)
DESCASC
Precipitaciones diarias en mm
DESCASC
Precipitaciones de 00:00 a 06:00 en mm
DESCASC
Precipitaciones de 06:00 a 12:00 en mm
DESCASC
Precipitaciones de 12:00 a 18:00 en mm
DESCASC
Precipitaciones de 18:00 a 24:00 en mm
DESCASC
26-03-2020 19.1 (15:10) 7.6 (07:30) 13.4 13.06 (16:10) 9.17 (15:20) 0 0 0 0 0
25-03-2020 18 (14:10) 4.3 (05:30) 11.2 6.39 (16:40) 4.17 (16:20) 0 0 0 0 0
24-03-2020 17.1 (15:50) 6.3 (07:20) 11.7 11.94 (12:40) 7.5 (12:00) 0.2 0.2 0 0 0
23-03-2020 14.5 (16:20) 4.6 (06:10) 9.5 11.11 (20:20) 6.94 (20:20) 1.8 0.8 0.2 0.2 0.6
22-03-2020 13.6 (14:30) 4.2 (05:50) 8.9 5.83 (18:10) 4.17 (18:10) 0.2 0 0.2 0 0
21-03-2020 13.2 (13:40) 6 (00:00) 9.6 12.5 (04:00) 6.39 (04:10) 5.8 3.2 0.2 1 1.4
20-03-2020 17.3 (15:00) 10.5 (00:00) 13.9 12.22 (23:20) 6.94 (23:20) 0 0 0 0 0
19-03-2020 19 (16:00) 4.9 (00:00) 12 7.5 (15:00) 4.44 (12:10) 0 0 0 0 0
18-03-2020 21.3 (16:40) 8.1 (00:00) 14.7 9.44 (14:20) 6.39 (14:20) 0 0 0 0 0
17-03-2020 16.4 (17:00) 3.7 (00:00) 10 11.39 (14:40) 7.78 (14:50) 1.6 1.4 0 0 0.2
16-03-2020 10.3 (00:00) 1.7 (00:00) 6 13.06 (14:50) 8.61 (15:00) 1.4 0 0 0.2 1.2
15-03-2020 21.7 (15:30) 8.4 (00:00) 15.1 11.67 (19:10) 8.61 (19:10) 4 0 0 0 4
14-03-2020 23.1 (15:50) 6.4 (00:00) 14.8 4.44 (16:20) 3.06 (18:40) 0 0 0 0 0
13-03-2020 23.1 (15:40) 6.5 (07:20) 14.8 9.44 (17:00) 5.28 (16:40) 0 0 0 0 0
12-03-2020 25.6 (16:00) 8.9 (00:00) 17.3 8.61 (14:50) 5.28 (13:40) 0 0 0 0 0
11-03-2020 28 (15:10) 4.8 (00:00) 16.4 7.5 (13:40) 5 (13:30) 0 0 0 0 0
10-03-2020 24 (15:40) 3.2 (00:00) 13.6 6.67 (15:30) 3.06 (15:30) 0 0 0 0 0
09-03-2020 18.5 (16:20) 1.6 (00:00) 10.1 6.94 (12:40) 4.17 (12:40) 0 0 0 0 0
08-03-2020 19.9 (15:50) -1.3 (-00:0) 9.3 8.33 (17:10) 5 (17:10) 0 0 0 0 0
07-03-2020 16.5 (15:40) 1.5 (00:00) 9 6.94 (12:10) 4.17 (02:00) 0 0 0 0 0
06-03-2020 14.3 (16:50) 4.6 (00:00) 9.5 13.33 (12:10) 8.89 (15:20) 0 0 0 0 0
05-03-2020 15.3 (15:50) 6.8 (00:00) 11.1 14.44 (16:20) 10 (16:10) 0 0 0 0 0
04-03-2020 16.8 (15:30) 6.3 (00:00) 11.5 9.17 (15:30) 6.39 (15:40) 0 0 0 0 0
03-03-2020 14.6 (14:50) 3.9 (00:00) 9.3 12.22 (11:40) 8.61 (15:30) 0 0 0 0 0
02-03-2020 14.8 (15:10) 6.3 (00:00) 10.6 19.44 (10:30) 13.06 (14:00) 1.2 1.2 0 0 0
01-03-2020 15.7 (16:00) 8.2 (00:00) 11.9 11.11 (13:40) 8.06 (12:10) 0 0 0 0 0
29-02-2020 15 (13:20) 5 (00:00) 10 10.83 (22:50) 6.94 (15:30) 0.2 0 0 0.2 0
28-02-2020 21.2 (16:00) 1.1 (00:00) 11.2 7.78 (17:30) 5 (17:30) 0 0 0 0 0

Gráficas

Temp. máximas Temp. mínimas Temp. medias Precipitaciones Rachas de viento máximas Velocidades máximas media en intervalos de 10 minutos

Datos horarios

Fecha y hora oficial Temperatura (ºC) Velocidad del viento (km/h) Dirección del viento Racha (km/h) Dirección de racha Precipitación (mm) Presión (hPa) Tendencia (hPa) Humedad (%)
2020-03-28 23:00:00 6.8 0 Calma 3 Nordeste 0 -- -- 75
2020-03-28 22:00:00 7.9 3 Sudoeste 3 Oeste 0 -- -- 73
2020-03-28 21:00:00 10.9 0 Calma 10 Nordeste 0 -- -- 62
2020-03-28 20:00:00 13.6 3 Norte 9 Sur 0 -- -- 55
2020-03-28 19:00:00 16.1 7 Sur 10 Sur 0 -- -- 45
2020-03-28 18:00:00 16.1 2 Este 15 Sudeste 0 -- -- 45
2020-03-28 17:00:00 16.9 7 Sur 15 Este 0 -- -- 44
2020-03-28 16:00:00 15.7 6 Nordeste 18 Este 0 -- -- 48
2020-03-28 15:00:00 15.1 7 Nordeste 21 Este 0 -- -- 48
2020-03-28 14:00:00 15 11 Este 24 Este 0 -- -- 51
2020-03-28 13:00:00 14 8 Nordeste 21 Este 0 -- -- 54
2020-03-28 12:00:00 13.3 11 Nordeste 22 Este 0 -- -- 61
2020-03-28 11:00:00 10.6 10 Nordeste 19 Nordeste 0 -- -- 67
2020-03-28 10:00:00 7.5 6 Nordeste 14 Este 0 -- -- 78
2020-03-28 09:00:00 4.6 6 Nordeste 12 Este 0 -- -- 91
2020-03-28 08:00:00 0.9 0 Calma 6 Este 0 -- -- 98
2020-03-28 07:00:00 0.1 4 Nordeste 8 Este 0 -- -- 97
2020-03-28 06:00:00 0.4 5 Este 9 Nordeste 0 -- -- 96
2020-03-28 05:00:00 0.2 3 Nordeste 8 Nordeste 0 -- -- 95
2020-03-28 04:00:00 0.5 3 Nordeste 6 Este 0 -- -- 95
2020-03-28 03:00:00 0.8 0 Calma 5 Nordeste 0 -- -- 93
2020-03-28 02:00:00 1.5 2 Nordeste 7 Norte 0 -- -- 92
2020-03-28 01:00:00 2.7 5 Nordeste 15 Nordeste 0 -- -- 90
2020-03-28 00:00:00 3.5 6 Nordeste 17 Norte 0 -- -- 87
2020-03-27 23:00:00 4.2 7 Nordeste 19 Nordeste 0 -- -- 84
2020-03-27 22:00:00 5.3 5 Nordeste 18 Este 0 -- -- 82
2020-03-27 21:00:00 7.1 7 Nordeste 15 Nordeste 0 -- -- 77
2020-03-27 20:00:00 7.7 6 Este 17 Nordeste 0 -- -- 73
2020-03-27 19:00:00 8.9 10 Nordeste 24 Nordeste 0 -- -- 70
2020-03-27 18:00:00 10.2 13 Nordeste 27 Nordeste 0 -- -- 67
2020-03-27 17:00:00 10.5 13 Nordeste 26 Nordeste 0 -- -- 67
2020-03-27 16:00:00 10.3 13 Norte 27 Norte 0 -- -- 74
2020-03-27 15:00:00 11.6 13 Norte 22 Norte 0 -- -- 71
2020-03-27 14:00:00 10 4 Noroeste 12 Norte 0 -- -- 74
2020-03-27 13:00:00 8.8 8 Nordeste 14 Norte 0 -- -- 83
2020-03-27 12:00:00 8.2 4 Sur 18 Sudoeste 0 -- -- 84
2020-03-27 11:00:00 7.6 4 Oeste 14 Sudoeste 0 -- -- 88
2020-03-27 10:00:00 6.3 6 Sur 13 Oeste 0 -- -- 99
2020-03-27 09:00:00 5.5 3 Sudoeste 6 Sudoeste 0 -- -- 99
2020-03-27 08:00:00 5.1 5 Noroeste 10 Sudoeste 0 -- -- 98
2020-03-27 07:00:00 5.1 5 Sudoeste 9 Sudoeste 0 -- -- 98
2020-03-27 06:00:00 4.6 4 Sur 12 Sudoeste 0 -- -- 96
2020-03-27 05:00:00 5.1 3 Sudoeste 9 Sur 0 -- -- 95
2020-03-27 04:00:00 5 2 Sur 8 Sur 0 -- -- 92
2020-03-27 03:00:00 6.2 4 Sudoeste 10 Sur 0 -- -- 91
2020-03-27 02:00:00 7.6 5 Sudoeste 24 Oeste 0 -- -- 87
2020-03-27 01:00:00 8.5 10 Oeste 18 Oeste 0 -- -- 86
2020-03-27 00:00:00 9.4 12 Oeste 22 Oeste 0 -- -- 82
2020-03-26 23:00:00 9.6 14 Oeste 20 Oeste 0 -- -- 80
2020-03-26 22:00:00 10.2 12 Oeste 18 Oeste 0 -- -- 72
2020-03-26 21:00:00 11.7 9 Oeste 21 Oeste 0 -- -- 64
2020-03-26 20:00:00 13.6 15 Oeste 31 Oeste 0 -- -- 56
2020-03-26 19:00:00 16.2 19 Noroeste 33 Oeste 0 -- -- 45
2020-03-26 18:00:00 17.6 25 Oeste 39 Noroeste 0 -- -- 41
2020-03-26 17:00:00 18.4 29 Oeste 47 Oeste 0 -- -- 36
2020-03-26 16:00:00 19 27 Noroeste 46 Oeste 0 -- -- 34
2020-03-26 15:00:00 19 30 Oeste 42 Noroeste 0 -- -- 32
2020-03-26 14:00:00 18.7 24 Noroeste 42 Oeste 0 -- -- 34
2020-03-26 13:00:00 17.8 22 Oeste 36 Oeste 0 -- -- 47
2020-03-26 12:00:00 17 19 Noroeste 29 Noroeste 0 -- -- 47
2020-03-26 11:00:00 15.8 14 Noroeste 30 Noroeste 0 -- -- 50
2020-03-26 10:00:00 13.3 15 Oeste 23 Oeste 0 -- -- 67
2020-03-26 09:00:00 10.4 4 Oeste 6 Oeste 0 -- -- 86
2020-03-26 08:00:00 7.8 5 Oeste 14 Sudoeste 0 -- -- 96
2020-03-26 07:00:00 8.3 5 Sudoeste 10 Sur 0 -- -- 95
2020-03-26 06:00:00 8.9 5 Sudoeste 13 Sudoeste 0 -- -- 95
2020-03-26 05:00:00 9.5 6 Sudoeste 17 Sudoeste 0 -- -- 95
2020-03-26 04:00:00 10.4 11 Sudoeste 14 Sudoeste 0 -- -- 94
2020-03-26 03:00:00 10.7 7 Sudoeste 12 Sudoeste 0 -- -- 92
2020-03-26 02:00:00 10.9 4 Oeste 8 Oeste 0 -- -- 86
2020-03-26 01:00:00 11.3 3 Este 14 Sudoeste 0 -- -- 75
2020-03-26 00:00:00 11.5 6 Oeste 23 Norte 0 -- -- 77
2020-03-25 23:00:00 10.3 10 Noroeste 21 Norte 0 -- -- 79
2020-03-25 22:00:00 9.7 8 Noroeste 12 Oeste 0 -- -- 77
2020-03-25 21:00:00 9.7 5 Noroeste 9 Oeste 0 -- -- 73
2020-03-25 20:00:00 12.3 7 Oeste 14 Noroeste 0 -- -- 62
2020-03-25 19:00:00 16.3 7 Noroeste 15 Noroeste 0 -- -- 48
2020-03-25 18:00:00 17.6 12 Noroeste 18 Norte 0 -- -- 39
2020-03-25 17:00:00 16 11 Noroeste 23 Noroeste 0 -- -- 48
2020-03-25 16:00:00 17 12 Noroeste 20 Noroeste 0 -- -- 43
2020-03-25 15:00:00 17.7 10 Norte 23 Norte 0 -- -- 42
2020-03-25 14:00:00 17.6 8 Norte 18 Noroeste 0 -- -- 45
2020-03-25 13:00:00 15.9 6 Noroeste 16 Noroeste 0 -- -- 49
2020-03-25 12:00:00 15.1 3 Oeste 11 Oeste 0 -- -- 52
2020-03-25 11:00:00 13.4 4 Nordeste 9 Este 0 -- -- 59
2020-03-25 10:00:00 11.2 5 Este 13 Este 0 -- -- 67
2020-03-25 09:00:00 10 3 Nordeste 9 Este 0 -- -- 76
2020-03-25 08:00:00 6.5 0 Calma 3 Norte 0 -- -- 94
2020-03-25 07:00:00 5.3 0 Calma 3 Noroeste 0 -- -- 95
2020-03-25 06:00:00 5 0 Calma 4 Este 0 -- -- 95
2020-03-25 05:00:00 4.4 0 Calma 5 Norte 0 -- -- 92
2020-03-25 04:00:00 5.2 3 Norte 8 Nordeste 0 -- -- 91
2020-03-25 03:00:00 6 4 Nordeste 8 Nordeste 0 -- -- 92
2020-03-25 02:00:00 6.6 0 Calma 10 Este 0 -- -- 89
2020-03-25 01:00:00 7.6 4 Nordeste 12 Nordeste 0 -- -- 88
2020-03-25 00:00:00 8.6 4 Nordeste 14 Nordeste 0 -- -- 86
2020-03-24 23:00:00 8.4 10 Nordeste 19 Nordeste 0 -- -- 86
2020-03-24 22:00:00 8.9 10 Nordeste 21 Nordeste 0 -- -- 83
2020-03-24 21:00:00 10 8 Nordeste 24 Nordeste 0 -- -- 79
2020-03-24 20:00:00 11.8 15 Nordeste 34 Nordeste 0 -- -- 72
2020-03-24 19:00:00 14 17 Nordeste 34 Nordeste 0 -- -- 65
2020-03-24 18:00:00 15.5 20 Nordeste 36 Nordeste 0 -- -- 62
2020-03-24 17:00:00 16.4 20 Nordeste 37 Nordeste 0 -- -- 56
2020-03-24 16:00:00 17 21 Nordeste 41 Nordeste 0 -- -- 60
2020-03-24 15:00:00 16.5 17 Nordeste 41 Este 0 -- -- 58
2020-03-24 14:00:00 16.3 20 Nordeste 37 Este 0 -- -- 55
2020-03-24 13:00:00 15.7 21 Nordeste 43 Este 0 -- -- 56
2020-03-24 12:00:00 14.4 27 Este 41 Este 0 -- -- 60
2020-03-24 11:00:00 13.1 22 Nordeste 39 Nordeste 0 -- -- 65
2020-03-24 10:00:00 11.6 18 Nordeste 37 Nordeste 0 -- -- 76
2020-03-24 09:00:00 9.7 12 Nordeste 24 Este 0 -- -- 89
2020-03-24 08:00:00 7.3 12 Nordeste 28 Nordeste 0 -- -- 95
2020-03-24 07:00:00 6.6 6 Nordeste 14 Nordeste 0 -- -- 95
2020-03-24 06:00:00 6.8 4 Nordeste 19 Nordeste 0 -- -- 95
2020-03-24 05:00:00 7.3 7 Nordeste 15 Norte 0.2 -- -- 96
2020-03-24 04:00:00 7 4 Nordeste 12 Nordeste 0 -- -- 96
2020-03-24 03:00:00 7.4 6 Nordeste 18 Nordeste 0 -- -- 96
2020-03-24 02:00:00 7.7 7 Nordeste 14 Nordeste 0 -- -- 95
2020-03-24 01:00:00 8.4 4 Nordeste 15 Nordeste 0 -- -- 93
2020-03-24 00:00:00 8.9 4 Nordeste 12 Nordeste 0 -- -- 91
2020-03-23 23:00:00 8.8 5 Nordeste 10 Nordeste 0 -- -- 90
2020-03-23 22:00:00 8.8 4 Sudeste 15 Este 0 -- -- 90
2020-03-23 21:00:00 9.1 9 Este 40 Sudeste 0.6 -- -- 87
2020-03-23 20:00:00 12.1 6 Sudeste 14 Sur 0 -- -- 75
2020-03-23 19:00:00 13.1 3 Nordeste 14 Este 0 -- -- 63
2020-03-23 18:00:00 14 8 Nordeste 18 Nordeste 0 -- -- 57
2020-03-23 17:00:00 13.2 7 Nordeste 22 Nordeste 0.2 -- -- 68
2020-03-23 16:00:00 14.1 13 Norte 30 Este 0 -- -- 54
2020-03-23 15:00:00 14.2 18 Este 27 Sudeste 0 -- -- 59
2020-03-23 14:00:00 11 6 Este 31 Este 0 -- -- 69
2020-03-23 13:00:00 13.5 19 Este 27 Este 0 -- -- 60
2020-03-23 12:00:00 11.9 10 Nordeste 23 Este 0 -- -- 67
2020-03-23 11:00:00 10.4 8 Nordeste 15 Este 0 -- -- 80
2020-03-23 10:00:00 7.8 9 Nordeste 17 Este 0 -- -- 94
2020-03-23 09:00:00 7.2 4 Nordeste 10 Nordeste 0.2 -- -- 99
2020-03-23 08:00:00 6.3 0 Calma 6 Este 0 -- -- 99
2020-03-23 07:00:00 5.4 2 Norte 8 Norte 0 -- -- 98
2020-03-23 06:00:00 4.8 2 Norte 6 Norte 0 -- -- 96
2020-03-23 05:00:00 6.2 0 Calma 5 Este 0 -- -- 95
2020-03-23 04:00:00 7.3 3 Nordeste 11 Este 0 -- -- 95
2020-03-23 03:00:00 7.4 3 Nordeste 12 Nordeste 0.8 -- -- 97
2020-03-23 02:00:00 6.9 0 Calma 5 Noroeste 0 -- -- 96
2020-03-23 01:00:00 6.6 0 Calma 5 Noroeste 0 -- -- 96
2020-03-23 00:00:00 6.4 0 Calma 4 Este 0 -- -- 93
2020-03-22 23:00:00 7.8 3 Este 6 Noroeste 0 -- -- 92
2020-03-22 22:00:00 6.9 5 Noroeste 6 Noroeste 0 -- -- 95
2020-03-22 21:00:00 6.8 0 Calma 3 Sudeste 0 -- -- 91
2020-03-22 20:00:00 8.2 0 Calma 4 Sudoeste 0 -- -- 86
2020-03-22 19:00:00 9.3 0 Calma 21 Noroeste 0 -- -- 83
2020-03-22 18:00:00 10.3 12 Noroeste 20 Noroeste 0 -- -- 78
2020-03-22 17:00:00 11.6 10 Sur 13 Sur 0 -- -- 67
2020-03-22 16:00:00 11 9 Sudeste 19 Sudeste 0 -- -- 67
2020-03-22 15:00:00 11.7 6 Sur 17 Sudeste 0 -- -- 65
2020-03-22 14:00:00 13 4 Norte 17 Nordeste 0 -- -- 60
2020-03-22 13:00:00 11.9 5 Nordeste 12 Norte 0 -- -- 64
2020-03-22 12:00:00 11 6 Sudeste 15 Este 0 -- -- 70
2020-03-22 11:00:00 10 9 Este 21 Este 0 -- -- 70
2020-03-22 10:00:00 8.9 6 Este 14 Este 0 -- -- 85
2020-03-22 09:00:00 5.9 2 Nordeste 8 Este 0 -- -- 98
2020-03-22 08:00:00 4.7 4 Nordeste 9 Este 0 -- -- 98
2020-03-22 07:00:00 4.5 2 Nordeste 5 Este 0.2 -- -- 97
2020-03-22 06:00:00 4.2 3 Nordeste 7 Nordeste 0 -- -- 96
2020-03-22 05:00:00 4.5 0 Calma 10 Nordeste 0 -- -- 96
2020-03-22 04:00:00 4.9 4 Nordeste 13 Este 0 -- -- 95
2020-03-22 03:00:00 5.6 9 Sur 17 Sur 0 -- -- 95
2020-03-22 02:00:00 5.4 6 Sudeste 19 Sudeste 0 -- -- 94
2020-03-22 01:00:00 5.6 9 Sur 19 Sudeste 0 -- -- 94
2020-03-22 00:00:00 6.2 10 Sur 21 Sur 0 -- -- 93
2020-03-21 23:00:00 6.4 13 Sur 21 Sur 0 -- -- 93
2020-03-21 22:00:00 6.1 5 Sur 19 Sudeste 0 -- -- 92
2020-03-21 21:00:00 6.2 13 Sudeste 27 Sur 0 -- -- 90
2020-03-21 20:00:00 6.8 14 Sudeste 30 Sudeste 0.6 -- -- 88
2020-03-21 19:00:00 7.8 18 Sur 33 Sur 0.8 -- -- 82
2020-03-21 18:00:00 8.8 21 Sudeste 31 Sudeste 0.2 -- -- 83
2020-03-21 17:00:00 9 15 Sur 26 Sur 0.4 -- -- 84
2020-03-21 16:00:00 8.1 15 Sur 35 Sur 0.4 -- -- 87
2020-03-21 15:00:00 12.4 14 Sur 29 Sur 0 -- -- 61
2020-03-21 14:00:00 13 14 Sur 29 Sudoeste 0 -- -- 58
2020-03-21 13:00:00 12.3 16 Sur 35 Sur 0 -- -- 62
2020-03-21 12:00:00 11.1 13 Sur 29 Sudoeste 0 -- -- 64
2020-03-21 11:00:00 11.1 17 Sur 29 Sur 0 -- -- 67
2020-03-21 10:00:00 9.6 11 Sur 21 Sur 0 -- -- 80
2020-03-21 09:00:00 8 7 Sur 17 Sudeste 0 -- -- 92
2020-03-21 08:00:00 7.4 3 Sur 16 Sur 0 -- -- 94
2020-03-21 07:00:00 7.1 8 Sur 15 Sur 0.2 -- -- 92
2020-03-21 06:00:00 7.2 9 Sur 14 Sudeste 0.4 -- -- 91
2020-03-21 05:00:00 7.2 9 Sur 40 Sudoeste 1.2 -- -- 90
2020-03-21 04:00:00 9.5 22 Sur 45 Sudoeste 1.4 -- -- 88
2020-03-21 03:00:00 10.9 15 Sudeste 30 Sur 0.2 -- -- 88
2020-03-21 02:00:00 11.6 19 Sur 33 Sur 0 -- -- 81
2020-03-21 01:00:00 11.7 20 Sur 39 Sudeste 0 -- -- 81
2020-03-21 00:00:00 11.8 23 Sur 44 Sudeste 0 -- -- 79
2020-03-20 23:00:00 11.9 21 Sur 36 Sudeste 0 -- -- 76
2020-03-20 22:00:00 11.4 9 Sudeste 14 Sudeste 0 -- -- 81
2020-03-20 21:00:00 12.2 8 Sur 16 Sudeste 0 -- -- 77
2020-03-20 20:00:00 13.2 11 Sudeste 17 Sudeste 0 -- -- 72
2020-03-20 19:00:00 15.2 11 Sur 22 Sudeste 0 -- -- 62
2020-03-20 18:00:00 15.8 12 Sudeste 28 Sudeste 0 -- -- 64
2020-03-20 17:00:00 16.4 20 Sudeste 29 Sudeste 0 -- -- 62
2020-03-20 16:00:00 16.7 14 Sudeste 24 Sudeste 0 -- -- 58
2020-03-20 15:00:00 17.3 13 Sudeste 23 Sudeste 0 -- -- 57
2020-03-20 14:00:00 16.3 14 Sudeste 23 Sudeste 0 -- -- 62
2020-03-20 13:00:00 15.4 10 Sur 23 Sudeste 0 -- -- 65
2020-03-20 12:00:00 14.2 12 Sudeste 23 Sudeste 0 -- -- 68
2020-03-20 11:00:00 13.5 15 Sudeste 27 Este 0 -- -- 73
2020-03-20 10:00:00 12.8 13 Sur 24 Sur 0 -- -- 75
2020-03-20 09:00:00 11.5 13 Sur 22 Sur 0 -- -- 84
2020-03-20 08:00:00 10.6 3 Sudeste 17 Este 0 -- -- 88
2020-03-20 07:00:00 10.5 5 Este 10 Este 0 -- -- 87
2020-03-20 06:00:00 10.8 7 Sudeste 17 Este 0 -- -- 87
2020-03-20 05:00:00 10.9 6 Sudeste 14 Sudeste 0 -- -- 86
2020-03-20 04:00:00 11.1 4 Sudeste 14 Sur 0 -- -- 85
2020-03-20 03:00:00 11.5 5 Sudeste 14 Sur 0 -- -- 84
2020-03-20 02:00:00 11.8 5 Sur 11 Sur 0 -- -- 82
2020-03-20 01:00:00 11.6 6 Sur 17 Sur 0 -- -- 82
2020-03-20 00:00:00 11.5 8 Sur 15 Sur 0 -- -- 81
2020-03-19 23:00:00 10.9 0 Calma 3 Oeste 0 -- -- 85
2020-03-19 22:00:00 11.1 0 Calma 5 Norte 0 -- -- 84
2020-03-19 21:00:00 12.4 0 Calma 3 Sudoeste 0 -- -- 78
2020-03-19 20:00:00 13.8 0 Calma 9 Norte 0 -- -- 73
2020-03-19 19:00:00 15.9 2 Oeste 10 Sudeste 0 -- -- 66
2020-03-19 18:00:00 17.4 7 Sur 16 Sudeste 0 -- -- 56
2020-03-19 17:00:00 18.5 9 Sudeste 20 Este 0 -- -- 53
2020-03-19 16:00:00 19 6 Nordeste 19 Este 0 -- -- 50
2020-03-19 15:00:00 18 9 Este 27 Este 0 -- -- 53
2020-03-19 14:00:00 17.4 14 Este 21 Este 0 -- -- 51
2020-03-19 13:00:00 16.8 10 Este 24 Este 0 -- -- 54
2020-03-19 12:00:00 15.6 13 Nordeste 23 Este 0 -- -- 59
2020-03-19 11:00:00 13 11 Nordeste 20 Norte 0 -- -- 71
2020-03-19 10:00:00 10.8 9 Nordeste 16 Nordeste 0 -- -- 77
2020-03-19 09:00:00 7.7 7 Este 10 Este 0 -- -- 88
2020-03-19 08:00:00 5.1 3 Nordeste 7 Nordeste 0 -- -- 92
2020-03-19 07:00:00 5.1 2 Este 6 Norte 0 -- -- 94
2020-03-19 06:00:00 4.9 0 Calma 7 Este 0 -- -- 89
2020-03-19 05:00:00 6.2 0 Calma 8 Este 0 -- -- 86
2020-03-19 04:00:00 7.6 5 Nordeste 11 Este 0 -- -- 86
2020-03-19 03:00:00 7.9 0 Calma 12 Este -- -- -- 85
2020-03-19 02:00:00 8.4 6 Este 12 Este 0 -- -- 85
2020-03-19 01:00:00 8.3 3 Sudeste 10 Nordeste 0 -- -- 86
2020-03-19 00:00:00 9.4 6 Nordeste 11 Nordeste 0 -- -- 83
2020-03-18 23:00:00 10.3 5 Este 15 Este 0 -- -- 79
2020-03-18 22:00:00 11.2 4 Nordeste 14 Este 0 -- -- 76
2020-03-18 21:00:00 12.5 8 Nordeste 21 Este 0 -- -- 72
2020-03-18 20:00:00 14.1 8 Nordeste 22 Nordeste 0 -- -- 68
2020-03-18 19:00:00 16.4 13 Nordeste 30 Nordeste 0 -- -- 62
2020-03-18 18:00:00 18.9 18 Nordeste 33 Este 0 -- -- 51
2020-03-18 17:00:00 21.2 13 Este 33 Este 0 -- -- 43
2020-03-18 16:00:00 20.5 12 Este 28 Este 0 -- -- 41
2020-03-18 15:00:00 20.4 13 Este 34 Este 0 -- -- 42
2020-03-18 14:00:00 19.2 13 Este 24 Este 0 -- -- 48
2020-03-18 13:00:00 17.4 14 Este 26 Este 0 -- -- 54
2020-03-18 12:00:00 16.1 12 Nordeste 32 Este 0 -- -- 60
2020-03-18 11:00:00 14.2 22 Este 30 Este 0 -- -- 65
2020-03-18 10:00:00 12.5 11 Nordeste 23 Este 0 -- -- 74
2020-03-18 09:00:00 9.8 12 Nordeste 24 Nordeste 0 -- -- 86
2020-03-18 08:00:00 8.2 7 Nordeste 21 Nordeste 0 -- -- 90
2020-03-18 07:00:00 8.4 11 Nordeste 26 Nordeste 0 -- -- 89
2020-03-18 06:00:00 8.4 7 Nordeste 17 Nordeste 0 -- -- 89
2020-03-18 05:00:00 8.9 7 Este 15 Este 0 -- -- 88
2020-03-18 04:00:00 9.7 7 Nordeste 15 Nordeste 0 -- -- 88
2020-03-18 03:00:00 9.8 4 Nordeste 15 Nordeste 0 -- -- 91
2020-03-18 02:00:00 10.4 6 Nordeste 21 Nordeste 0 -- -- 89
2020-03-18 01:00:00 10.9 9 Nordeste 23 Este 0 -- -- 88
2020-03-18 00:00:00 11 11 Nordeste 23 Nordeste 0 -- -- 87
2020-03-17 23:00:00 10.2 8 Nordeste 18 Nordeste 0 -- -- 81
2020-03-17 22:00:00 10.2 4 Nordeste 10 Nordeste 0 -- -- 77
2020-03-17 21:00:00 11.5 7 Nordeste 13 Nordeste 0 -- -- 72
2020-03-17 20:00:00 12.7 5 Este 19 Este 0.2 -- -- 67
2020-03-17 19:00:00 15.1 10 Este 32 Este 0 -- -- 42
2020-03-17 18:00:00 15.7 23 Este 33 Nordeste 0 -- -- 40
2020-03-17 17:00:00 16.4 22 Este 34 Este 0 -- -- 37
2020-03-17 16:00:00 15.9 14 Nordeste 37 Este 0 -- -- 43
2020-03-17 15:00:00 15.8 22 Este 41 Este 0 -- -- 39
2020-03-17 14:00:00 14.2 21 Este 34 Nordeste 0 -- -- 41
2020-03-17 13:00:00 13.6 17 Este 35 Este 0 -- -- 52
2020-03-17 12:00:00 12.1 19 Este 34 Sudeste 0 -- -- 56
2020-03-17 11:00:00 10.2 19 Este 29 Este 0 -- -- 69
2020-03-17 10:00:00 7.3 17 Este 24 Este 0 -- -- 82
2020-03-17 09:00:00 5.3 12 Este 15 Este 0 -- -- 92
2020-03-17 08:00:00 4.3 5 Este 15 Este 0 -- -- 96
2020-03-17 07:00:00 4.2 6 Este 15 Sudeste 0 -- -- 93
2020-03-17 06:00:00 4.3 13 Sudeste 27 Este 0.2 -- -- 92
2020-03-17 05:00:00 4.3 14 Este 31 Este 0.8 -- -- 94
2020-03-17 04:00:00 4.6 9 Este 19 Este 0.2 -- -- 97
2020-03-17 03:00:00 4 7 Este 12 Este 0 -- -- 97
2020-03-17 02:00:00 3.7 5 Nordeste 13 Nordeste 0 -- -- 95
2020-03-17 01:00:00 4 9 Este 18 Nordeste 0.2 -- -- 94
2020-03-17 00:00:00 4.4 3 Nordeste 10 Norte 0 -- -- 95
2020-03-16 23:00:00 4.3 0 Calma 5 Oeste 0.2 -- -- 93
2020-03-16 22:00:00 3.9 0 Calma 20 Noroeste 0 -- -- 94
2020-03-16 21:00:00 3.9 9 Oeste 13 Norte 0.4 -- -- 92
2020-03-16 20:00:00 4.3 9 Norte 26 Norte 0.4 -- -- 90
2020-03-16 19:00:00 4.9 6 Norte 37 Noroeste 0.2 -- -- 88
2020-03-16 18:00:00 7.5 27 Oeste 41 Oeste 0 -- -- 72
2020-03-16 17:00:00 6.5 22 Noroeste 42 Noroeste 0 -- -- 81
2020-03-16 16:00:00 7.8 23 Noroeste 38 Noroeste 0.2 -- -- 76
2020-03-16 15:00:00 7 31 Noroeste 47 Noroeste 0 -- -- 76
2020-03-16 14:00:00 7.6 24 Noroeste 37 Noroeste 0 -- -- 66
2020-03-16 13:00:00 7 19 Oeste 32 Noroeste 0 -- -- 68
2020-03-16 12:00:00 6.7 22 Noroeste 33 Noroeste 0 -- -- 68
2020-03-16 11:00:00 6.5 21 Noroeste 38 Noroeste 0 -- -- 69
2020-03-16 10:00:00 5.8 24 Oeste 36 Oeste 0 -- -- 74
2020-03-16 09:00:00 4.1 19 Oeste 34 Oeste 0 -- -- 81
2020-03-16 08:00:00 1.9 10 Noroeste 21 Oeste 0 -- -- 90
2020-03-16 07:00:00 2 14 Oeste 28 Noroeste 0 -- -- 88
2020-03-16 06:00:00 2.7 19 Noroeste 32 Noroeste 0 -- -- 82
2020-03-16 05:00:00 2.9 13 Noroeste 31 Oeste 0 -- -- 83
2020-03-16 04:00:00 4 25 Noroeste 39 Oeste 0 -- -- 80
2020-03-16 03:00:00 5.7 15 Noroeste 30 Noroeste 0 -- -- 79
2020-03-16 02:00:00 7 22 Oeste 33 Oeste 0 -- -- 76
2020-03-16 01:00:00 8.9 26 Oeste 40 Oeste 0 -- -- 79
2020-03-16 00:00:00 10.3 19 Oeste 38 Oeste 0.2 -- -- 79
2020-03-15 23:00:00 11.2 17 Noroeste 31 Noroeste 0.6 -- -- 78
2020-03-15 22:00:00 12.7 21 Noroeste 33 Noroeste 0.2 -- -- 86
2020-03-15 21:00:00 13.1 13 Noroeste 26 Noroeste 0 -- -- 86
2020-03-15 20:00:00 13.7 11 Sudoeste 42 Oeste 3 -- -- 83
2020-03-15 19:00:00 17.8 22 Sudoeste 39 Sudoeste 0 -- -- 59
2020-03-15 18:00:00 19.9 21 Sur 35 Sudoeste 0 -- -- 52
2020-03-15 17:00:00 20.3 15 Sur 35 Sur 0 -- -- 53
2020-03-15 16:00:00 21.4 17 Sur 31 Sur 0 -- -- 50
2020-03-15 15:00:00 21.1 18 Sur 31 Sur 0 -- -- 49
2020-03-15 14:00:00 20.7 12 Sur 27 Sur 0 -- -- 53
2020-03-15 13:00:00 20.1 12 Sur 24 Sur 0 -- -- 53
2020-03-15 12:00:00 18.9 10 Sur 24 Sudoeste 0 -- -- 64
2020-03-15 11:00:00 16.9 15 Sur 26 Sudoeste 0 -- -- 69
2020-03-15 10:00:00 13.8 9 Sur 17 Sur 0 -- -- 79
2020-03-15 09:00:00 10.9 9 Sur 15 Sur 0 -- -- 88
2020-03-15 08:00:00 9.4 10 Sur 17 Sur 0 -- -- 95
2020-03-15 07:00:00 9.2 2 Sur 8 Sudeste 0 -- -- 95
2020-03-15 06:00:00 8.4 2 Sur 6 Sur 0 -- -- 93
2020-03-15 05:00:00 9.3 0 Calma 3 Sudeste 0 -- -- 90
2020-03-15 04:00:00 9.7 3 Sur 6 Sur 0 -- -- 94
2020-03-15 03:00:00 10.1 0 Calma 4 Sudoeste 0 -- -- 87
2020-03-15 02:00:00 9.8 0 Calma 2 Oeste 0 -- -- 89
2020-03-15 01:00:00 10.4 0 Calma 2 Sur 0 -- -- 83
2020-03-15 00:00:00 12 0 Calma -- -- 0 -- -- 80
2020-03-14 23:00:00 13.8 0 Calma 2 Sur 0 -- -- 79
2020-03-14 22:00:00 15.3 2 Este 14 Sur 0 -- -- 75
2020-03-14 21:00:00 17.1 10 Sur 16 Sur 0 -- -- 69
2020-03-14 20:00:00 18.3 8 Sudeste 15 Sudeste 0 -- -- 64
2020-03-14 19:00:00 18.2 8 Norte 15 Norte 0 -- -- 60
2020-03-14 18:00:00 20.9 2 Noroeste 9 Este 0 -- -- 48
2020-03-14 17:00:00 21.3 3 Norte 16 Este 0 -- -- 48
2020-03-14 16:00:00 22.9 8 Nordeste 15 Este 0 -- -- 46
2020-03-14 15:00:00 22.2 6 Noroeste 15 Noroeste 0 -- -- 48
2020-03-14 14:00:00 22.1 5 Norte 14 Sur 0 -- -- 51
2020-03-14 13:00:00 20.9 4 Sudoeste 12 Sudeste 0 -- -- 54
2020-03-14 12:00:00 19.2 5 Sudoeste 12 Sudeste 0 -- -- 61
2020-03-14 11:00:00 16.7 2 Sudoeste 5 Este 0 -- -- 73
2020-03-14 10:00:00 13 0 Calma 6 Noroeste 0 -- -- 88
2020-03-14 09:00:00 9.4 3 Oeste 4 Norte 0 -- -- 97
2020-03-14 08:00:00 7.2 2 Sudoeste 9 Sur 0 -- -- 97
2020-03-14 07:00:00 7 4 Sur 8 Sur 0 -- -- 97
2020-03-14 06:00:00 7 2 Sudeste 6 Sur 0 -- -- 92
2020-03-14 05:00:00 8.7 4 Sur 7 Sur 0 -- -- 97
2020-03-14 04:00:00 7 5 Sur 8 Sur 0 -- -- 94
2020-03-14 03:00:00 8.2 0 Calma 4 Sur 0 -- -- 86
2020-03-14 02:00:00 9.3 2 Sur 6 Sur 0 -- -- 93
2020-03-14 01:00:00 8.8 0 Calma 2 Oeste 0 -- -- 84
2020-03-14 00:00:00 10 0 Calma 8 Sur 0 -- -- 81
2020-03-13 23:00:00 11.7 3 Sur 9 Noroeste 0 -- -- 81
2020-03-13 22:00:00 11.4 11 Noroeste 14 Noroeste 0 -- -- 85
2020-03-13 21:00:00 12.3 12 Noroeste 14 Noroeste 0 -- -- 81
2020-03-13 20:00:00 14.9 8 Noroeste 19 Noroeste 0 -- -- 71
2020-03-13 19:00:00 18.4 15 Noroeste 25 Noroeste 0 -- -- 58
2020-03-13 18:00:00 21.3 13 Oeste 27 Oeste 0 -- -- 42
2020-03-13 17:00:00 22.1 17 Oeste 34 Oeste 0 -- -- 42
2020-03-13 16:00:00 22.8 19 Oeste 30 Oeste 0 -- -- 42
2020-03-13 15:00:00 21.4 12 Oeste 27 Sudoeste 0 -- -- 49
2020-03-13 14:00:00 22 14 Sudoeste 24 Sudoeste 0 -- -- 47
2020-03-13 13:00:00 21.1 8 Sudoeste 18 Sudoeste 0 -- -- 51
2020-03-13 12:00:00 19.8 8 Sur 18 Oeste 0 -- -- 56
2020-03-13 11:00:00 17.6 7 Sudoeste 11 Sudoeste 0 -- -- 64
2020-03-13 10:00:00 15.1 5 Sur 8 Sur 0 -- -- 68
2020-03-13 09:00:00 9.8 0 Calma 2 Sudoeste 0 -- -- 91
2020-03-13 08:00:00 7 0 Calma 5 Sur 0 -- -- 94
2020-03-13 07:00:00 7.2 0 Calma 7 Sur 0 -- -- 89
2020-03-13 06:00:00 7.3 3 Sudoeste 6 Sur 0 -- -- 90
2020-03-13 05:00:00 7 3 Sudoeste 7 Sur 0 -- -- 89
2020-03-13 04:00:00 6.9 0 Calma 4 Sur 0 -- -- 85
2020-03-13 03:00:00 7.7 0 Calma 4 Sudeste 0 -- -- 87
2020-03-13 02:00:00 8.3 0 Calma 3 Sudoeste 0 -- -- 81
2020-03-13 01:00:00 10.7 0 Calma 8 Oeste 0 -- -- 76
2020-03-13 00:00:00 11.2 7 Noroeste 10 Noroeste 0 -- -- 78
2020-03-12 23:00:00 12.4 6 Sudoeste 8 Sudoeste 0 -- -- 71
2020-03-12 22:00:00 13.3 2 Sudoeste 6 Nordeste 0 -- -- 65
2020-03-12 21:00:00 15.2 4 Sur 8 Sur 0 -- -- 58
2020-03-12 20:00:00 17.5 8 Sudoeste 17 Sudoeste 0 -- -- 51
2020-03-12 19:00:00 20.5 11 Sudoeste 19 Sudoeste 0 -- -- 43
2020-03-12 18:00:00 23.6 10 Sur 24 Sudoeste 0 -- -- 33
2020-03-12 17:00:00 25.3 14 Sur 28 Sudoeste 0 -- -- 30
2020-03-12 16:00:00 25.6 13 Sur 28 Sur 0 -- -- 30
2020-03-12 15:00:00 24.6 17 Sur 31 Sur 0 -- -- 36
2020-03-12 14:00:00 23.2 14 Sur 31 Sudoeste 0 -- -- 37
2020-03-12 13:00:00 23 15 Sur 30 Sudoeste 0 -- -- 37
2020-03-12 12:00:00 22.2 10 Sur 21 Sur 0 -- -- 39
2020-03-12 11:00:00 20.8 9 Sur 16 Sur 0 -- -- 41
2020-03-12 10:00:00 19.2 8 Sur 16 Sudeste 0 -- -- 43
2020-03-12 09:00:00 14.6 0 Calma 5 Oeste 0 -- -- 61
2020-03-12 08:00:00 12.3 0 Calma 17 Sur 0 -- -- 62
2020-03-12 07:00:00 14.3 12 Sur 16 Sur 0 -- -- 55
2020-03-12 06:00:00 14.1 12 Sur 17 Sur 0 -- -- 56
2020-03-12 05:00:00 13.3 5 Sudeste 10 Sur 0 -- -- 59
2020-03-12 04:00:00 12.7 3 Sur 6 Sur 0 -- -- 61
2020-03-12 03:00:00 14.8 6 Sur 18 Sur 0 -- -- 55
2020-03-12 02:00:00 8.9 3 Sudoeste 5 Sudoeste 0 -- -- 77
2020-03-12 01:00:00 10 0 Calma 3 Sudoeste 0 -- -- 73
2020-03-12 00:00:00 10.9 2 Noroeste 9 Este 0 -- -- 71
2020-03-11 23:00:00 11.4 3 Norte 5 Norte 0 -- -- 72
2020-03-11 22:00:00 12.7 0 Calma 4 Oeste 0 -- -- 68
2020-03-11 21:00:00 14.7 0 Calma 4 Oeste 0 -- -- 62
2020-03-11 20:00:00 18.5 0 Calma 2 Oeste 0 -- -- 52
2020-03-11 19:00:00 22.9 0 Calma 8 Sur 0 -- -- 42
2020-03-11 18:00:00 25.9 5 Sur 17 Sudeste 0 -- -- 29
2020-03-11 17:00:00 26.8 9 Sur 16 Sudoeste 0 -- -- 29
2020-03-11 16:00:00 27.2 10 Sur 18 Sur 0 -- -- 28
2020-03-11 15:00:00 27.6 6 Sur 23 Sur 0 -- -- 31
2020-03-11 14:00:00 27.5 12 Sur 27 Sudeste 0 -- -- 25
2020-03-11 13:00:00 25.8 16 Sudeste 26 Sudeste 0 -- -- 28
2020-03-11 12:00:00 22.4 5 Sudeste 12 Sur 0 -- -- 47
2020-03-11 11:00:00 20.1 2 Oeste 5 Sudoeste 0 -- -- 52
2020-03-11 10:00:00 15.8 2 Noroeste 5 Noroeste 0 -- -- 64
2020-03-11 09:00:00 10.1 0 Calma 5 Sudeste 0 -- -- 82
2020-03-11 08:00:00 4.9 0 Calma 3 Oeste 0 -- -- 88
2020-03-11 07:00:00 5 2 Oeste 3 Oeste 0 -- -- 85
2020-03-11 06:00:00 5.7 0 Calma 4 Sudoeste 0 -- -- 87
2020-03-11 05:00:00 5.7 3 Sudeste 4 Sudeste 0 -- -- 84
2020-03-11 04:00:00 6.2 0 Calma 4 Sudoeste 0 -- -- 86
2020-03-11 03:00:00 6.7 3 Este 4 Este 0 -- -- 81
2020-03-11 02:00:00 7.5 0 Calma 2 Oeste 0 -- -- 79
2020-03-11 01:00:00 8.1 2 Sudoeste 5 Oeste 0 -- -- 79
2020-03-11 00:00:00 9.2 0 Calma 3 Oeste 0 -- -- 77
2020-03-10 23:00:00 10.3 0 Calma 3 Oeste 0 -- -- 73
2020-03-10 22:00:00 11.4 2 Oeste 7 Norte 0 -- -- 70
2020-03-10 21:00:00 13.3 4 Sudoeste 5 Sudoeste 0 -- -- 64
2020-03-10 20:00:00 18 2 Sudeste 6 Nordeste 0 -- -- 50
2020-03-10 19:00:00 21.9 4 Nordeste 9 Norte 0 -- -- 41
2020-03-10 18:00:00 23.7 4 Noroeste 16 Norte 0 -- -- 36
2020-03-10 17:00:00 23.5 9 Norte 18 Nordeste 0 -- -- 36
2020-03-10 16:00:00 23.9 8 Norte 24 Norte 0 -- -- 33
2020-03-10 15:00:00 23.6 5 Norte 14 Norte 0 -- -- 35
2020-03-10 14:00:00 22.5 6 Nordeste 13 Este 0 -- -- 36
2020-03-10 13:00:00 21.1 6 Nordeste 17 Este 0 -- -- 37
2020-03-10 12:00:00 19.7 8 Este 14 Sudeste 0 -- -- 37
2020-03-10 11:00:00 16.8 8 Este 15 Este 0 -- -- 41
2020-03-10 10:00:00 13.2 7 Este 12 Este 0 -- -- 58
2020-03-10 09:00:00 7.4 0 Calma 4 Este 0 -- -- 79
2020-03-10 08:00:00 3.3 0 Calma 3 Noroeste 0 -- -- 84
2020-03-10 07:00:00 3.9 0 Calma 7 Sur 0 -- -- 80
2020-03-10 06:00:00 3.7 0 Calma 5 Norte 0 -- -- 82
2020-03-10 05:00:00 3.5 0 Calma 2 Oeste 0 -- -- 82
2020-03-10 04:00:00 4.2 0 Calma 4 Sudeste 0 -- -- 80
2020-03-10 03:00:00 4.8 0 Calma 2 Oeste 0 -- -- 79
2020-03-10 02:00:00 6.6 0 Calma 7 Noroeste 0 -- -- 71
2020-03-10 01:00:00 7.2 7 Noroeste 10 Noroeste 0 -- -- 70
2020-03-10 00:00:00 8.8 2 Noroeste 8 Oeste 0 -- -- 63
2020-03-09 23:00:00 9.7 6 Noroeste 12 Oeste 0 -- -- 61
2020-03-09 22:00:00 8.9 7 Noroeste 12 Noroeste 0 -- -- 67
2020-03-09 21:00:00 10.2 11 Norte 19 Norte 0 -- -- 62
2020-03-09 20:00:00 11.4 12 Norte 15 Norte 0 -- -- 58
2020-03-09 19:00:00 14.7 9 Noroeste 19 Norte 0 -- -- 53
2020-03-09 18:00:00 17.5 14 Noroeste 23 Noroeste 0 -- -- 44
2020-03-09 17:00:00 18.1 13 Noroeste 22 Noroeste 0 -- -- 45
2020-03-09 16:00:00 18.4 10 Noroeste 24 Noroeste 0 -- -- 42
2020-03-09 15:00:00 18 13 Noroeste 21 Noroeste 0 -- -- 37
2020-03-09 14:00:00 17.1 8 Noroeste 21 Noroeste 0 -- -- 41
2020-03-09 13:00:00 16.1 13 Noroeste 25 Oeste 0 -- -- 47
2020-03-09 12:00:00 14.2 14 Noroeste 21 Noroeste 0 -- -- 58
2020-03-09 11:00:00 11.2 9 Noroeste 13 Noroeste 0 -- -- 74
2020-03-09 10:00:00 8.3 4 Noroeste 9 Noroeste 0 -- -- 91
2020-03-09 09:00:00 5 0 Calma 5 Oeste 0 -- -- 99
2020-03-09 08:00:00 1.8 0 Calma 8 Sudoeste 0 -- -- 97
2020-03-09 07:00:00 2.4 2 Sudoeste 5 Sudoeste 0 -- -- 94
2020-03-09 06:00:00 3.2 2 Sudeste 5 Sudoeste 0 -- -- 95
2020-03-09 05:00:00 4.5 0 Calma 13 Noroeste 0 -- -- 92
2020-03-09 04:00:00 6.9 6 Noroeste 15 Noroeste 0 -- -- 92
2020-03-09 03:00:00 8.1 13 Noroeste 18 Noroeste 0 -- -- 91
2020-03-09 02:00:00 7.3 10 Noroeste 14 Noroeste 0 -- -- 87
2020-03-09 01:00:00 7.5 5 Oeste 8 Noroeste 0 -- -- 80
2020-03-09 00:00:00 8.2 9 Oeste 12 Noroeste 0 -- -- 76
2020-03-08 23:00:00 9.1 9 Noroeste 18 Oeste 0 -- -- 72
2020-03-08 22:00:00 11 9 Oeste 15 Noroeste 0 -- -- 64
2020-03-08 21:00:00 11.2 11 Noroeste 15 Noroeste 0 -- -- 60
2020-03-08 20:00:00 13.3 6 Noroeste 14 Noroeste 0 -- -- 50
2020-03-08 19:00:00 14.2 9 Noroeste 23 Noroeste 0 -- -- 46
2020-03-08 18:00:00 17.6 16 Noroeste 30 Noroeste 0 -- -- 35
2020-03-08 17:00:00 18.5 17 Noroeste 24 Oeste 0 -- -- 30
2020-03-08 16:00:00 19.7 14 Noroeste 22 Oeste 0 -- -- 29
2020-03-08 15:00:00 19.4 11 Oeste 20 Oeste 0 -- -- 31
2020-03-08 14:00:00 18.2 9 Noroeste 18 Noroeste 0 -- -- 35
2020-03-08 13:00:00 17.2 8 Oeste 15 Noroeste 0 -- -- 36
2020-03-08 12:00:00 15.6 4 Noroeste 10 Oeste 0 -- -- 48
2020-03-08 11:00:00 13.5 2 Nordeste 5 Norte 0 -- -- 53
2020-03-08 10:00:00 9.7 2 Sudeste 6 Sudeste 0 -- -- 70
2020-03-08 09:00:00 3.1 4 Sudeste 6 Sudeste 0 -- -- 89
2020-03-08 08:00:00 -0.6 0 Calma 5 Sudoeste 0 -- -- 94
2020-03-08 07:00:00 -1.1 0 Calma 2 Sudoeste 0 -- -- 89
2020-03-08 06:00:00 0.4 0 Calma 4 Este 0 -- -- 85
2020-03-08 05:00:00 -0.2 3 Oeste 5 Oeste 0 -- -- 90
2020-03-08 04:00:00 0.8 0 Calma 4 Sudeste 0 -- -- 84
2020-03-08 03:00:00 1.7 0 Calma 4 Sudoeste 0 -- -- 87
2020-03-08 02:00:00 1.7 0 Calma 5 Sudeste 0 -- -- 79
2020-03-08 01:00:00 3 0 Calma 5 Sur 0 -- -- 78
2020-03-08 00:00:00 3.8 3 Oeste 5 Oeste 0 -- -- 78
2020-03-07 23:00:00 5.6 0 Calma 6 Noroeste 0 -- -- 68
2020-03-07 22:00:00 6.7 7 Noroeste 9 Noroeste 0 -- -- 67
2020-03-07 21:00:00 7.2 8 Oeste 10 Noroeste 0 -- -- 67
2020-03-07 20:00:00 9.2 6 Noroeste 13 Norte 0 -- -- 63
2020-03-07 19:00:00 13.5 11 Norte 15 Norte 0 -- -- 50
2020-03-07 18:00:00 16 9 Norte 17 Norte 0 -- -- 41
2020-03-07 17:00:00 16.2 11 Norte 22 Norte 0 -- -- 39
2020-03-07 16:00:00 16.3 12 Norte 25 Norte 0 -- -- 40
2020-03-07 15:00:00 15.7 9 Norte 20 Norte 0 -- -- 43
2020-03-07 14:00:00 15.7 10 Nordeste 23 Nordeste 0 -- -- 41
2020-03-07 13:00:00 14.5 10 Nordeste 25 Nordeste 0 -- -- 40
2020-03-07 12:00:00 13.3 10 Nordeste 23 Nordeste 0 -- -- 46
2020-03-07 11:00:00 11.7 5 Sur 10 Sur 0 -- -- 50
2020-03-07 10:00:00 8.6 2 Nordeste 7 Este 0 -- -- 62
2020-03-07 09:00:00 4.5 0 Calma 2 Sur 0 -- -- 77
2020-03-07 08:00:00 1.5 3 Sudoeste 8 Norte 0 -- -- 84
2020-03-07 07:00:00 2.4 9 Norte 14 Noroeste 0 -- -- 83
2020-03-07 06:00:00 1.8 12 Noroeste 14 Noroeste 0 -- -- 85
2020-03-07 05:00:00 2.4 11 Noroeste 16 Noroeste 0 -- -- 82
2020-03-07 04:00:00 2.9 14 Noroeste 18 Noroeste 0 -- -- 80
2020-03-07 03:00:00 4.1 13 Noroeste 19 Noroeste 0 -- -- 74
2020-03-07 02:00:00 5.2 15 Noroeste 21 Noroeste 0 -- -- 69
2020-03-07 01:00:00 5.8 15 Noroeste 20 Noroeste 0 -- -- 67
2020-03-07 00:00:00 7.3 8 Noroeste 30 Noroeste 0 -- -- 63
2020-03-06 23:00:00 6.6 12 Noroeste 22 Noroeste 0 -- -- 66
2020-03-06 22:00:00 7.5 5 Este 27 Noroeste 0 -- -- 63
2020-03-06 21:00:00 8.3 13 Noroeste 27 Norte 0 -- -- 60
2020-03-06 20:00:00 10.1 13 Norte 39 Noroeste 0 -- -- 53
2020-03-06 19:00:00 11.8 19 Noroeste 44 Noroeste 0 -- -- 49
2020-03-06 18:00:00 13.4 24 Noroeste 42 Noroeste 0 -- -- 48
2020-03-06 17:00:00 14.1 27 Noroeste 45 Noroeste 0 -- -- 46
2020-03-06 16:00:00 14.2 26 Noroeste 48 Noroeste 0 -- -- 48
2020-03-06 15:00:00 13.8 26 Noroeste 40 Noroeste 0 -- -- 47
2020-03-06 14:00:00 13.7 24 Noroeste 42 Noroeste 0 -- -- 51
2020-03-06 13:00:00 12.5 26 Noroeste 48 Noroeste 0 -- -- 55
2020-03-06 12:00:00 11.2 27 Noroeste 43 Noroeste 0 -- -- 60
2020-03-06 11:00:00 10.1 29 Noroeste 39 Oeste 0 -- -- 72
2020-03-06 10:00:00 8.8 25 Noroeste 38 Oeste 0 -- -- 81
2020-03-06 09:00:00 8.1 24 Oeste 35 Oeste 0 -- -- 88
2020-03-06 08:00:00 6.9 9 Oeste 21 Oeste 0 -- -- 94
2020-03-06 07:00:00 6.6 17 Oeste 30 Oeste 0 -- -- 95
2020-03-06 06:00:00 6.1 10 Oeste 21 Oeste 0 -- -- 95
2020-03-06 05:00:00 5.4 15 Oeste 28 Oeste 0 -- -- 93
2020-03-06 04:00:00 4.8 12 Noroeste 17 Noroeste 0 -- -- 95
2020-03-06 03:00:00 5.4 13 Noroeste 22 Oeste 0 -- -- 93
2020-03-06 02:00:00 5.8 12 Noroeste 26 Noroeste 0 -- -- 92
2020-03-06 01:00:00 6.3 12 Oeste 27 Oeste 0 -- -- 88
2020-03-06 00:00:00 7.2 17 Oeste 35 Oeste 0 -- -- 85
2020-03-05 23:00:00 8.1 16 Noroeste 38 Oeste 0 -- -- 79
2020-03-05 22:00:00 9.3 22 Oeste 37 Oeste 0 -- -- 76
2020-03-05 21:00:00 9.9 22 Oeste 32 Oeste 0 -- -- 74
2020-03-05 20:00:00 10.6 14 Oeste 29 Noroeste 0 -- -- 68
2020-03-05 19:00:00 12.5 26 Noroeste 38 Oeste 0 -- -- 61
2020-03-05 18:00:00 13.6 26 Oeste 49 Oeste 0 -- -- 57
2020-03-05 17:00:00 14.5 34 Oeste 52 Oeste 0 -- -- 54
2020-03-05 16:00:00 15 35 Noroeste 48 Oeste 0 -- -- 52
2020-03-05 15:00:00 15 31 Oeste 51 Oeste 0 -- -- 56
2020-03-05 14:00:00 14.1 27 Oeste 44 Oeste 0 -- -- 64
2020-03-05 13:00:00 13.3 31 Oeste 48 Oeste 0 -- -- 85
2020-03-05 12:00:00 12 24 Oeste 35 Oeste 0 -- -- 89
2020-03-05 11:00:00 10.9 18 Sudoeste 35 Sudoeste 0 -- -- 92
2020-03-05 10:00:00 11.7 24 Sudoeste 37 Oeste 0 -- -- 82
2020-03-05 09:00:00 10.4 8 Oeste 22 Oeste 0 -- -- 94
2020-03-05 08:00:00 9.5 13 Oeste 25 Oeste 0 -- -- 96
2020-03-05 07:00:00 9.2 13 Oeste 24 Oeste 0 -- -- 97
2020-03-05 06:00:00 9.9 10 Oeste 23 Oeste 0 -- -- 96
2020-03-05 05:00:00 9.7 10 Oeste 18 Oeste 0 -- -- 95
2020-03-05 04:00:00 8.9 3 Sudeste 7 Sur 0 -- -- 88
2020-03-05 03:00:00 9.2 4 Sudoeste 8 Sudoeste 0 -- -- 86
2020-03-05 02:00:00 9 5 Sur 10 Sur 0 -- -- 86
2020-03-05 01:00:00 7.7 3 Sur 8 Sur 0 -- -- 91
2020-03-05 00:00:00 6.8 3 Sudoeste 8 Sur 0 -- -- 93
2020-03-04 23:00:00 6.8 3 Sur 4 Sur 0 -- -- 85
2020-03-04 22:00:00 8.1 3 Sur 6 Sur 0 -- -- 85
2020-03-04 21:00:00 9.1 0 Calma 8 Sudoeste 0 -- -- 80
2020-03-04 20:00:00 11.2 6 Sudoeste 15 Oeste 0 -- -- 75
2020-03-04 19:00:00 14.1 12 Noroeste 24 Oeste 0 -- -- 67
2020-03-04 18:00:00 14.4 17 Oeste 30 Oeste 0 -- -- 62
2020-03-04 17:00:00 15.2 17 Noroeste 29 Oeste 0 -- -- 64
2020-03-04 16:00:00 15.8 20 Oeste 33 Oeste 0 -- -- 61
2020-03-04 15:00:00 15.1 19 Oeste 31 Oeste 0 -- -- 65
2020-03-04 14:00:00 14.7 17 Noroeste 26 Oeste 0 -- -- 70
2020-03-04 13:00:00 14.8 14 Noroeste 24 Noroeste 0 -- -- 67
2020-03-04 12:00:00 13.7 17 Noroeste 28 Noroeste 0 -- -- 74
2020-03-04 11:00:00 13.9 16 Oeste 30 Oeste 0 -- -- 72
2020-03-04 10:00:00 12.3 17 Oeste 24 Noroeste 0 -- -- 83
2020-03-04 09:00:00 10.7 4 Sudoeste 5 Sudoeste 0 -- -- 93
2020-03-04 08:00:00 10.3 0 Calma 18 Oeste 0 -- -- 93
2020-03-04 07:00:00 10.4 12 Oeste 19 Noroeste 0 -- -- 92
2020-03-04 06:00:00 11.5 11 Oeste 28 Oeste 0 -- -- 90
2020-03-04 05:00:00 11.7 20 Oeste 28 Oeste 0 -- -- 92
2020-03-04 04:00:00 11.6 10 Oeste 17 Oeste 0 -- -- 93
2020-03-04 03:00:00 11 13 Oeste 26 Oeste 0 -- -- 94
2020-03-04 02:00:00 11 17 Oeste 24 Oeste 0 -- -- 94
2020-03-04 01:00:00 11.9 15 Oeste 22 Oeste 0 -- -- 91
2020-03-04 00:00:00 12.7 8 Oeste 16 Oeste 0 -- -- 91
2020-03-03 23:00:00 12.8 9 Sudoeste 18 Oeste 0 -- -- 91
2020-03-03 22:00:00 12.9 17 Oeste 24 Oeste 0 -- -- 90
2020-03-03 21:00:00 13.2 15 Oeste 22 Sudoeste 0 -- -- 86
2020-03-03 20:00:00 13.4 10 Sudoeste 25 Sudoeste 0 -- -- 86
2020-03-03 19:00:00 13.6 15 Oeste 24 Oeste 0 -- -- 85
2020-03-03 18:00:00 14 17 Oeste 36 Oeste 0 -- -- 81
2020-03-03 17:00:00 14.3 25 Oeste 41 Oeste 0 -- -- 77
2020-03-03 16:00:00 14.3 24 Oeste 42 Oeste 0 -- -- 77
2020-03-03 15:00:00 14.4 24 Oeste 39 Oeste 0 -- -- 76
2020-03-03 14:00:00 13.2 23 Oeste 35 Sudoeste 0 -- -- 78
2020-03-03 13:00:00 11.9 22 Oeste 39 Oeste 0 -- -- 77
2020-03-03 12:00:00 11.6 26 Oeste 44 Oeste 0 -- -- 74
2020-03-03 11:00:00 9.8 21 Oeste 30 Oeste 0 -- -- 83
2020-03-03 10:00:00 7.3 14 Sudoeste 22 Oeste 0 -- -- 92
2020-03-03 09:00:00 5.7 0 Calma 13 Sudoeste 0 -- -- 94
2020-03-03 08:00:00 5.1 0 Calma 4 Noroeste 0 -- -- 94
2020-03-03 07:00:00 4.5 2 Sudoeste 8 Sur 0 -- -- 95
2020-03-03 06:00:00 4 0 Calma 8 Noroeste 0 -- -- 93
2020-03-03 05:00:00 4.7 2 Noroeste 17 Oeste 0 -- -- 92
2020-03-03 04:00:00 5.6 9 Oeste 25 Oeste 0 -- -- 90
2020-03-03 03:00:00 5.5 10 Oeste 15 Oeste 0 -- -- 92
2020-03-03 02:00:00 5.2 9 Oeste 14 Oeste 0 -- -- 91
2020-03-03 01:00:00 5.1 9 Oeste 17 Oeste 0 -- -- 88
2020-03-03 00:00:00 6.3 10 Sudoeste 17 Oeste 0 -- -- 82
2020-03-02 23:00:00 7 8 Oeste 18 Noroeste 0 -- -- 80
2020-03-02 22:00:00 7.7 12 Oeste 21 Oeste 0 -- -- 76
2020-03-02 21:00:00 8.8 12 Oeste 30 Noroeste 0 -- -- 72
2020-03-02 20:00:00 10 21 Noroeste 37 Oeste 0 -- -- 65
2020-03-02 19:00:00 11 24 Oeste 41 Oeste 0 -- -- 61
2020-03-02 18:00:00 12 30 Oeste 48 Oeste 0 -- -- 58
2020-03-02 17:00:00 12.8 34 Noroeste 57 Oeste 0 -- -- 59
2020-03-02 16:00:00 13.6 34 Oeste 57 Oeste 0 -- -- 58
2020-03-02 15:00:00 14.5 37 Oeste 64 Oeste 0 -- -- 56
2020-03-02 14:00:00 14.5 47 Oeste 62 Oeste 0 -- -- 51
2020-03-02 13:00:00 14.4 39 Oeste 59 Oeste 0 -- -- 61
2020-03-02 12:00:00 13.5 41 Oeste 63 Oeste 0 -- -- 61
2020-03-02 11:00:00 13.3 36 Oeste 70 Oeste 0 -- -- 70
2020-03-02 10:00:00 13.5 35 Oeste 60 Oeste 0 -- -- 81
2020-03-02 09:00:00 12.5 33 Oeste 55 Oeste 0 -- -- 90
2020-03-02 08:00:00 12 34 Sudoeste 51 Oeste 0 -- -- 92
2020-03-02 07:00:00 11.8 32 Oeste 46 Sudoeste 0 -- -- 89
2020-03-02 06:00:00 11.3 28 Sudoeste 54 Sudoeste 0.2 -- -- 91
2020-03-02 05:00:00 11.3 33 Sudoeste 51 Oeste 0.8 -- -- 93
2020-03-02 04:00:00 12.1 29 Oeste 56 Oeste 0.2 -- -- 85
2020-03-02 03:00:00 12.2 30 Sudoeste 46 Sudoeste 0 -- -- 83
2020-03-02 02:00:00 12.2 19 Sudoeste 41 Sudoeste 0 -- -- 83
2020-03-02 01:00:00 12.2 25 Sudoeste 45 Sudoeste 0 -- -- 84
2020-03-02 00:00:00 12 23 Sudoeste 38 Sudoeste 0 -- -- 88
2020-03-01 23:00:00 12.2 22 Sudoeste 36 Sudoeste 0 -- -- 91
2020-03-01 22:00:00 12.8 18 Sur 36 Sudoeste 0 -- -- 87
2020-03-01 21:00:00 12.2 16 Sur 33 Sudoeste 0 -- -- 86
2020-03-01 20:00:00 12.7 18 Sur 32 Sudoeste 0 -- -- 82
2020-03-01 19:00:00 13.1 18 Sudoeste 36 Sudoeste 0 -- -- 79
2020-03-01 18:00:00 13.9 22 Sudoeste 40 Sudoeste 0 -- -- 75
2020-03-01 17:00:00 14.3 22 Sudoeste 33 Sudoeste 0 -- -- 72
2020-03-01 16:00:00 15.7 26 Sudoeste 39 Oeste 0 -- -- 66
2020-03-01 15:00:00 14.3 23 Sudoeste 39 Oeste 0 -- -- 72
2020-03-01 14:00:00 13.9 20 Sudoeste 40 Sudoeste 0 -- -- 72
2020-03-01 13:00:00 12.3 27 Sudoeste 39 Sudoeste 0 -- -- 76
2020-03-01 12:00:00 12 23 Sudoeste 37 Oeste 0 -- -- 77
2020-03-01 11:00:00 10.8 18 Sudoeste 31 Sudoeste 0 -- -- 86
2020-03-01 10:00:00 9.4 15 Sudoeste 26 Oeste 0 -- -- 89
2020-03-01 09:00:00 8.6 15 Sudoeste 25 Oeste 0 -- -- 92
2020-03-01 08:00:00 8.2 8 Sudoeste 26 Oeste 0 -- -- 93
2020-03-01 07:00:00 8.9 8 Sur 23 Oeste 0 -- -- 93
2020-03-01 06:00:00 9 16 Sudoeste 27 Sudoeste 0 -- -- 93
2020-03-01 05:00:00 8.9 16 Sudoeste 26 Oeste 0 -- -- 94
2020-03-01 04:00:00 9.2 14 Sudoeste 21 Oeste 0 -- -- 95
2020-03-01 03:00:00 9.1 12 Sudoeste 18 Oeste 0 -- -- 96
2020-03-01 02:00:00 8.6 8 Sudoeste 14 Oeste 0 -- -- 96
2020-03-01 01:00:00 9.7 10 Oeste 19 Oeste 0 -- -- 92
2020-03-01 00:00:00 10 15 Oeste 31 Sudoeste 0 -- -- 91
2020-02-29 23:00:00 11.3 23 Oeste 39 Sudoeste 0 -- -- 91
2020-02-29 22:00:00 11.2 14 Sudoeste 25 Sudoeste 0 -- -- 95
2020-02-29 21:00:00 11.3 12 Sudoeste 27 Sudoeste 0 -- -- 95
2020-02-29 20:00:00 11.3 12 Sudoeste 38 Sudoeste 0 -- -- 94
2020-02-29 19:00:00 11.6 17 Sudoeste 30 Sudoeste 0 -- -- 91
2020-02-29 18:00:00 11.9 20 Sudoeste 32 Sudoeste 0.2 -- -- 90
2020-02-29 17:00:00 13.2 18 Sudoeste 33 Sudoeste 0 -- -- 80
2020-02-29 16:00:00 13.4 20 Sudoeste 38 Sudoeste 0 -- -- 78
2020-02-29 15:00:00 14.3 19 Sudoeste 28 Sudoeste 0 -- -- 69
2020-02-29 14:00:00 14.5 17 Sudoeste 30 Sur 0 -- -- 65
2020-02-29 13:00:00 14 18 Sudoeste 38 Sudoeste 0 -- -- 68
2020-02-29 12:00:00 12.7 22 Sudoeste 33 Sudoeste 0 -- -- 72
2020-02-29 11:00:00 10.3 16 Sudoeste 26 Sudoeste 0 -- -- 81
2020-02-29 10:00:00 8.6 6 Sudoeste 17 Sudoeste 0 -- -- 87
2020-02-29 09:00:00 6.8 6 Sudoeste 13 Oeste 0 -- -- 95
2020-02-29 08:00:00 5.7 2 Sudoeste 26 Oeste 0 -- -- 95
2020-02-29 07:00:00 5.4 12 Oeste 18 Oeste 0 -- -- 87
2020-02-29 06:00:00 5.7 0 Calma 6 Oeste 0 -- -- 86
2020-02-29 05:00:00 6.7 3 Oeste 10 Noroeste 0 -- -- 83
2020-02-29 04:00:00 6.3 3 Sur 14 Sudoeste 0 -- -- 80
2020-02-29 03:00:00 6.3 0 Calma 14 Sudoeste 0 -- -- 79
2020-02-29 02:00:00 7.5 2 Sudeste 17 Sudoeste 0 -- -- 70
2020-02-29 01:00:00 9.2 11 Sudoeste 19 Sur 0 -- -- 63
2020-02-29 00:00:00 10.3 12 Sudoeste 22 Sudoeste 0 -- -- 70
2020-02-28 23:00:00 9.3 8 Sudoeste 12 Sur 0 -- -- 74
2020-02-28 22:00:00 9.4 6 Sur 9 Sudoeste 0 -- -- 71
2020-02-28 21:00:00 11 5 Sur 11 Sudoeste 0 -- -- 58
2020-02-28 20:00:00 13.6 8 Sur 17 Sudoeste 0 -- -- 47
2020-02-28 19:00:00 16.2 8 Sur 23 Sur 0 -- -- 42
2020-02-28 18:00:00 18.5 13 Sur 28 Sur 0 -- -- 36
2020-02-28 17:00:00 19.9 13 Sur 27 Sudoeste 0 -- -- 31
2020-02-28 16:00:00 21.2 10 Sur 21 Este 0 -- -- 29
2020-02-28 15:00:00 20.8 10 Sudeste 23 Sudeste 0 -- -- 32
2020-02-28 14:00:00 20.1 11 Sudeste 28 Este 0 -- -- 34
2020-02-28 13:00:00 18.2 6 Este 15 Sudeste 0 -- -- 45
2020-02-28 12:00:00 16.3 3 Norte 7 Sudeste 0 -- -- 54
2020-02-28 11:00:00 13.8 3 Nordeste 6 Nordeste 0 -- -- 61
2020-02-28 10:00:00 9.6 3 Nordeste 8 Este 0 -- -- 77
2020-02-28 09:00:00 2.4 0 Calma 4 Este 0 -- -- 95
2020-02-28 08:00:00 1.1 0 Calma 4 Nordeste 0 -- -- 89
2020-02-28 07:00:00 1.6 0 Calma 2 Oeste 0 -- -- 89
2020-02-28 06:00:00 2.2 0 Calma 5 Sudeste 0 -- -- 91
2020-02-28 05:00:00 2.3 0 Calma 3 Oeste 0 -- -- 91
2020-02-28 04:00:00 2.9 0 Calma 3 Norte 0 -- -- 87
2020-02-28 03:00:00 3.3 0 Calma 4 Este 0 -- -- 88
2020-02-28 02:00:00 4 0 Calma 5 Noroeste 0 -- -- 84
2020-02-28 01:00:00 4.3 2 Oeste 3 Oeste 0 -- -- 83
2020-02-28 00:00:00 5.9 0 Calma 7 Noroeste 0 -- -- 77